Terminal Aerodrome Forecast
Issued by NWS Cleveland, OH

Home | Current Version | Previous Version | Graphics & Text | Print | Product List | Glossary On
Versions: 1 2 3 4 5 6 7 8 9 10 11 12 13 14 15 16 17 18 19 20 21 22 23 24 25 26
000
FTUS41 KCLE 241126
TAFCLE
TAF
KCLE 241126Z 2412/2518 18005KT P6SM BKN060 OVC200
     FM241500 24008KT P6SM BKN120 OVC200
     FM242000 27008KT P6SM VCTS BKN040CB OVC060
     FM242300 23005KT P6SM SCT120 BKN200
     FM250400 19008KT P6SM SCT050 BKN120
     FM251100 21006KT P6SM VCTS BKN035CB OVC120=

USA.gov is the U.S. government's official web portal to all federal, state and local government web resources and services.